createdAt,value
2023-04-04T00:00:21.886Z,101057.66
2023-04-04T00:02:49.553Z,101062.38
2023-04-04T00:05:17.215Z,101058.03
2023-04-04T00:07:47.496Z,101060.41
2023-04-04T00:10:15.055Z,101064.81
2023-04-04T00:12:42.672Z,101058.59
2023-04-04T00:15:10.313Z,101061.16
2023-04-04T00:17:37.278Z,101050.94
2023-04-04T00:20:04.653Z,101053.75
2023-04-04T00:22:31.725Z,101049.22
2023-04-04T00:24:59.235Z,101055.66
2023-04-04T00:27:26.400Z,101056.75
2023-04-04T00:29:53.584Z,101049.94
2023-04-04T00:32:21.225Z,101043.34
2023-04-04T00:34:53.735Z,101050.88
2023-04-04T00:37:22.991Z,101040.53
2023-04-04T00:39:50.486Z,101038.94
2023-04-04T00:42:18.211Z,101031.91
2023-04-04T00:44:45.448Z,101025.81
2023-04-04T00:47:13.142Z,101034.06
2023-04-04T00:49:40.597Z,101033.22
2023-04-04T00:52:08.251Z,101034.28
2023-04-04T00:54:35.983Z,101032.81
2023-04-04T00:57:07.195Z,101027.72
2023-04-04T00:59:34.369Z,101021.63
2023-04-04T01:02:01.372Z,101028.16
2023-04-04T01:04:29.630Z,101022.81
2023-04-04T01:06:57.064Z,101017.72
2023-04-04T01:09:24.467Z,101015.72
2023-04-04T01:11:52.495Z,101022.78
2023-04-04T01:14:19.820Z,101011.34
2023-04-04T01:16:49.750Z,101010.59
2023-04-04T01:19:30.688Z,101020.59
2023-04-04T01:22:01.328Z,101014.38
2023-04-04T01:24:33.888Z,101012.66
2023-04-04T01:27:03.445Z,101001.97
2023-04-04T01:29:32.367Z,101015.22
2023-04-04T01:32:12.725Z,101011.56
2023-04-04T01:34:50.181Z,101011.81
2023-04-04T01:37:36.984Z,101010.34
2023-04-04T01:40:12.511Z,101007.16
2023-04-04T01:42:42.436Z,101005.78
2023-04-04T01:45:09.617Z,101006.88
2023-04-04T01:47:43.490Z,101007.34
2023-04-04T01:50:16.747Z,101010.84
2023-04-04T01:52:44.593Z,101006.38
2023-04-04T01:55:11.662Z,101005.63
2023-04-04T01:57:39.050Z,100997.59
2023-04-04T02:00:07.461Z,100995.16
2023-04-04T02:02:42.588Z,100991.00
2023-04-04T02:05:11.109Z,100984.81
2023-04-04T02:07:38.429Z,100980.53
2023-04-04T02:10:12.487Z,100981.72
2023-04-04T02:12:40.990Z,100983.63
2023-04-04T02:15:08.310Z,100989.97
2023-04-04T02:17:35.847Z,100981.19
2023-04-04T02:20:04.115Z,100975.84
2023-04-04T02:22:31.008Z,100977.78
2023-04-04T02:24:58.011Z,100976.81
2023-04-04T02:27:25.033Z,100975.56
2023-04-04T02:29:51.992Z,100967.16
2023-04-04T02:32:19.144Z,100959.22
2023-04-04T02:34:46.980Z,100968.44
2023-04-04T02:37:14.594Z,100972.31
2023-04-04T02:39:42.725Z,100963.09
2023-04-04T02:42:09.825Z,100971.88
2023-04-04T02:44:37.199Z,100966.53
2023-04-04T02:47:06.444Z,100954.13
2023-04-04T02:49:33.388Z,100953.50
2023-04-04T02:52:01.274Z,100944.13
2023-04-04T02:54:33.211Z,100937.75
2023-04-04T02:57:01.131Z,100930.69
2023-04-04T02:59:28.533Z,100935.50
2023-04-04T03:01:55.720Z,100933.06
2023-04-04T03:04:23.158Z,100924.97
2023-04-04T03:06:50.119Z,100926.69
2023-04-04T03:09:17.454Z,100914.53
2023-04-04T03:11:44.959Z,100911.88
2023-04-04T03:14:12.261Z,100918.16
2023-04-04T03:16:40.477Z,100913.78
2023-04-04T03:19:07.731Z,100912.81
2023-04-04T03:21:34.732Z,100906.25
2023-04-04T03:24:01.761Z,100915.41
2023-04-04T03:26:29.527Z,100911.16
2023-04-04T03:28:56.924Z,100906.88
2023-04-04T03:31:25.289Z,100902.53
2023-04-04T03:33:52.968Z,100902.53
2023-04-04T03:36:22.821Z,100906.69
2023-04-04T03:38:50.832Z,100905.72
2023-04-04T03:41:17.949Z,100898.44
2023-04-04T03:43:45.747Z,100907.31
2023-04-04T03:46:12.685Z,100903.69
2023-04-04T03:48:40.230Z,100897.25
2023-04-04T03:51:10.048Z,100901.53
2023-04-04T03:53:38.504Z,100909.63
2023-04-04T03:56:05.665Z,100900.91
2023-04-04T03:58:35.555Z,100899.53
2023-04-04T04:01:02.609Z,100901.09
2023-04-04T04:03:32.044Z,100911.78
2023-04-04T04:06:00.129Z,100913.50
2023-04-04T04:08:27.925Z,100908.38
2023-04-04T04:10:55.097Z,100905.19
2023-04-04T04:13:22.299Z,100905.19
2023-04-04T04:15:50.455Z,100913.31
2023-04-04T04:18:21.575Z,100918.22
2023-04-04T04:20:50.043Z,100907.53
2023-04-04T04:23:18.240Z,100900.94
2023-04-04T04:25:49.516Z,100898.41
2023-04-04T04:28:19.336Z,100898.84
2023-04-04T04:30:47.437Z,100884.34
2023-04-04T04:33:19.499Z,100889.56
2023-04-04T04:36:05.144Z,100893.28
2023-04-04T04:38:42.267Z,100892.81
2023-04-04T04:41:11.058Z,100891.56
2023-04-04T04:43:45.273Z,100891.97
2023-04-04T04:46:12.620Z,100892.81
2023-04-04T04:48:39.881Z,100901.69
2023-04-04T04:51:07.965Z,100905.28
2023-04-04T04:53:42.794Z,100910.63
2023-04-04T04:56:10.599Z,100923.75
2023-04-04T04:58:41.216Z,100917.34
2023-04-04T05:01:10.717Z,100916.50
2023-04-04T05:03:39.716Z,100911.94
2023-04-04T05:06:10.005Z,100920.66
2023-04-04T05:08:38.214Z,100921.50
2023-04-04T05:15:26.411Z,100925.03
2023-04-04T05:17:53.868Z,100930.38
2023-04-04T05:20:22.304Z,100915.22
2023-04-04T05:22:51.642Z,100921.41
2023-04-04T05:25:27.272Z,100922.16
2023-04-04T05:27:55.869Z,100935.69
2023-04-04T05:30:23.584Z,100925.88
2023-04-04T05:33:20.163Z,100932.06
2023-04-04T05:35:59.954Z,100942.75
2023-04-04T05:38:28.609Z,100941.03
2023-04-04T05:40:55.555Z,100943.00
2023-04-04T05:43:23.990Z,100934.88
2023-04-04T05:46:00.144Z,100932.47
2023-04-04T05:48:28.980Z,100941.16
2023-04-04T05:50:59.045Z,100957.03
2023-04-04T05:53:49.014Z,100957.75
2023-04-04T05:56:22.324Z,100953.09
2023-04-04T05:58:49.406Z,100954.84
2023-04-04T06:01:18.547Z,100947.34
2023-04-04T06:03:46.891Z,100951.41
2023-04-04T06:06:20.469Z,100962.22
2023-04-04T06:08:53.606Z,100952.28
2023-04-04T06:11:24.285Z,100959.69
2023-04-04T06:13:55.294Z,100963.84
2023-04-04T06:16:24.020Z,100963.56
2023-04-04T06:18:51.088Z,100976.97
2023-04-04T06:21:17.992Z,100983.56
2023-04-04T06:23:44.852Z,100980.66
2023-04-04T06:26:12.669Z,100991.69
2023-04-04T06:28:49.713Z,100982.34
2023-04-04T06:31:24.206Z,100998.06
2023-04-04T06:33:53.881Z,100991.81
2023-04-04T06:36:23.358Z,100993.63
2023-04-04T06:38:51.671Z,100996.41
2023-04-04T06:41:21.282Z,100996.72
2023-04-04T06:43:50.124Z,100997.84
2023-04-04T06:46:18.298Z,100996.22
2023-04-04T06:48:45.294Z,101006.34
2023-04-04T06:51:12.996Z,101015.06
2023-04-04T06:53:44.503Z,101010.13
2023-04-04T06:56:12.161Z,101012.75
2023-04-04T06:58:39.690Z,101021.19
2023-04-04T07:01:07.576Z,101017.16
2023-04-04T07:03:34.598Z,101020.72
2023-04-04T07:06:04.777Z,101026.78
2023-04-04T07:08:36.151Z,101030.94
2023-04-04T07:11:04.495Z,101028.22
2023-04-04T07:13:31.315Z,101029.41
2023-04-04T07:15:58.395Z,101029.81
2023-04-04T07:18:25.257Z,101037.09
2023-04-04T07:20:52.314Z,101039.31
2023-04-04T07:23:19.180Z,101045.31
2023-04-04T07:25:47.362Z,101051.25
2023-04-04T07:28:14.260Z,101056.28
2023-04-04T07:30:41.542Z,101060.88
2023-04-04T07:33:08.729Z,101061.56
2023-04-04T07:35:35.735Z,101067.50
2023-04-04T07:38:03.298Z,101068.91
2023-04-04T07:40:30.604Z,101070.78
2023-04-04T07:42:57.741Z,101070.50
2023-04-04T07:45:24.623Z,101079.94
2023-04-04T07:47:51.682Z,101081.03
2023-04-04T07:50:18.693Z,101082.94
2023-04-04T07:52:52.459Z,101078.75
2023-04-04T07:55:20.328Z,101081.63
2023-04-04T07:57:47.736Z,101088.84
2023-04-04T08:00:15.174Z,101086.19
2023-04-04T08:02:44.320Z,101097.22
2023-04-04T08:05:11.305Z,101092.66
2023-04-04T08:07:38.244Z,101103.13
2023-04-04T08:10:06.396Z,101102.22
2023-04-04T08:12:33.310Z,101104.00
2023-04-04T08:15:00.593Z,101097.22
2023-04-04T08:17:28.717Z,101102.69
2023-04-04T08:19:55.728Z,101105.56
2023-04-04T08:22:22.740Z,101108.59
2023-04-04T08:24:49.604Z,101119.38
2023-04-04T08:27:17.062Z,101121.50
2023-04-04T08:29:45.667Z,101116.22
2023-04-04T08:32:13.412Z,101117.84
2023-04-04T08:34:40.758Z,101113.13
2023-04-04T08:37:08.943Z,101119.06
2023-04-04T08:39:36.269Z,101125.91
2023-04-04T08:42:05.706Z,101147.56
2023-04-04T08:44:37.407Z,101137.09
2023-04-04T08:47:05.784Z,101131.88
2023-04-04T08:49:38.210Z,101132.44
2023-04-04T08:52:07.585Z,101136.06
2023-04-04T08:54:35.807Z,101142.47
2023-04-04T08:57:04.310Z,101135.66
2023-04-04T08:59:32.044Z,101135.25
2023-04-04T09:02:24.703Z,101140.47
2023-04-04T09:05:05.648Z,101146.03
2023-04-04T09:07:34.978Z,101141.03
2023-04-04T09:10:04.250Z,101154.22
2023-04-04T09:12:33.302Z,101150.69
2023-04-04T09:15:01.129Z,101159.69
2023-04-04T09:17:28.592Z,101146.44
2023-04-04T09:19:55.722Z,101155.41
2023-04-04T09:22:22.821Z,101154.28
2023-04-04T09:24:51.840Z,101167.75
2023-04-04T09:27:19.169Z,101170.47
2023-04-04T09:29:48.015Z,101156.50
2023-04-04T09:32:16.348Z,101158.91
2023-04-04T09:34:45.286Z,101167.00
2023-04-04T09:37:16.230Z,101171.16
2023-04-04T09:39:44.259Z,101158.81
2023-04-04T09:42:12.373Z,101175.56
2023-04-04T09:44:39.689Z,101186.91
2023-04-04T09:47:30.471Z,101178.69
2023-04-04T09:50:01.587Z,101194.63
2023-04-04T09:52:33.997Z,101180.53
2023-04-04T09:55:04.151Z,101190.81
2023-04-04T09:57:33.629Z,101189.88
2023-04-04T10:00:01.661Z,101191.59
2023-04-04T10:02:31.211Z,101191.22
2023-04-04T10:05:06.163Z,101182.38
2023-04-04T10:07:33.980Z,101188.53
2023-04-04T10:10:09.274Z,101193.03
2023-04-04T10:12:39.127Z,101200.75
2023-04-04T10:15:06.718Z,101195.75
2023-04-04T10:17:41.422Z,101194.47
2023-04-04T10:20:09.631Z,101193.25
2023-04-04T10:22:38.085Z,101196.81
2023-04-04T10:25:07.678Z,101198.03
2023-04-04T10:27:34.807Z,101195.69
2023-04-04T10:30:02.312Z,101197.56
2023-04-04T10:32:38.332Z,101198.31
2023-04-04T10:35:11.206Z,101198.00
2023-04-04T10:37:43.938Z,101210.72
2023-04-04T10:40:15.702Z,101202.75
2023-04-04T10:42:47.204Z,101195.59
2023-04-04T10:45:21.183Z,101197.34
2023-04-04T10:47:49.408Z,101192.22
2023-04-04T10:50:16.405Z,101187.13
2023-04-04T10:52:44.862Z,101189.97
2023-04-04T10:55:13.579Z,101191.47
2023-04-04T10:57:47.408Z,101208.88
2023-04-04T11:00:18.057Z,101209.56
2023-04-04T11:02:59.954Z,101186.03
2023-04-04T11:05:41.350Z,101192.78
2023-04-04T11:08:10.952Z,101194.66
2023-04-04T11:10:41.495Z,101195.97
2023-04-04T11:13:16.430Z,101201.88
2023-04-04T11:15:52.973Z,101187.69
2023-04-04T11:18:32.711Z,101184.50
2023-04-04T11:21:05.695Z,101189.47
2023-04-04T11:23:47.684Z,101184.75
2023-04-04T11:26:20.107Z,101181.19
2023-04-04T11:28:47.257Z,101168.88
2023-04-04T11:31:17.651Z,101186.59
2023-04-04T11:34:04.528Z,101188.88
2023-04-04T11:36:37.413Z,101180.66
2023-04-04T11:39:11.793Z,101181.94
2023-04-04T11:41:49.839Z,101177.22
2023-04-04T11:44:17.684Z,101169.44
2023-04-04T11:46:45.498Z,101161.91
2023-04-04T11:49:12.480Z,101177.81
2023-04-04T11:51:40.961Z,101173.72
2023-04-04T11:54:17.896Z,101151.28
2023-04-04T11:56:45.512Z,101142.94
2023-04-04T11:59:13.330Z,101159.22
2023-04-04T12:01:41.436Z,101148.31
2023-04-04T12:04:09.607Z,101151.41
2023-04-04T12:06:37.829Z,101160.16
2023-04-04T12:09:06.340Z,101147.50
2023-04-04T12:11:37.399Z,101142.53
2023-04-04T12:14:04.319Z,101142.94
2023-04-04T12:16:31.405Z,101141.38
2023-04-04T12:19:02.146Z,101144.25
2023-04-04T12:21:32.735Z,101144.34
2023-04-04T12:23:59.816Z,101149.66
2023-04-04T12:26:29.986Z,101135.75
2023-04-04T12:28:58.297Z,101144.53
2023-04-04T12:31:29.632Z,101155.66
2023-04-04T12:33:56.685Z,101149.72
2023-04-04T12:36:29.912Z,101147.88
2023-04-04T12:39:08.551Z,101139.31
2023-04-04T12:41:36.903Z,101150.06
2023-04-04T12:44:09.895Z,101142.09
2023-04-04T12:46:42.352Z,101146.69
2023-04-04T12:49:14.092Z,101136.88
2023-04-04T12:51:41.397Z,101140.22
2023-04-04T12:54:08.471Z,101128.22
2023-04-04T12:56:37.238Z,101131.34
2023-04-04T12:59:08.410Z,101127.56
2023-04-04T13:01:37.970Z,101118.97
2023-04-04T13:04:04.884Z,101119.84
2023-04-04T13:06:32.782Z,101129.19
2023-04-04T13:08:59.878Z,101127.28
2023-04-04T13:11:27.757Z,101138.16
2023-04-04T13:14:03.127Z,101127.06
2023-04-04T13:16:37.154Z,101117.75
2023-04-04T13:19:04.955Z,101117.94
2023-04-04T13:21:31.889Z,101121.84
2023-04-04T13:23:58.927Z,101140.13
2023-04-04T13:26:26.452Z,101125.59
2023-04-04T13:28:53.284Z,101145.03
2023-04-04T13:31:20.308Z,101126.47
2023-04-04T13:33:47.629Z,101126.00
2023-04-04T13:36:14.543Z,101131.97
2023-04-04T13:38:41.628Z,101129.06
2023-04-04T13:41:08.650Z,101132.56
2023-04-04T13:43:35.841Z,101116.84
2023-04-04T13:46:02.784Z,101125.16
2023-04-04T13:48:30.013Z,101126.94
2023-04-04T13:50:57.540Z,101114.69
2023-04-04T13:53:24.488Z,101124.56
2023-04-04T13:56:16.370Z,101125.41
2023-04-04T13:58:38.545Z,101114.25
2023-04-04T14:01:06.906Z,101119.13
2023-04-04T14:03:34.014Z,101130.59
2023-04-04T14:06:09.190Z,101130.56
2023-04-04T14:08:36.557Z,101112.63
2023-04-04T14:11:03.514Z,101105.50
2023-04-04T14:13:30.415Z,101102.88
2023-04-04T14:15:57.279Z,101109.56
2023-04-04T14:18:24.184Z,101105.66
2023-04-04T14:20:51.246Z,101141.38
2023-04-04T14:23:18.155Z,101115.72
2023-04-04T14:25:45.312Z,101120.28
2023-04-04T14:28:12.379Z,101120.75
2023-04-04T14:30:39.280Z,101118.75
2023-04-04T14:33:06.225Z,101122.09
2023-04-04T14:35:33.167Z,101114.69
2023-04-04T14:38:00.116Z,101127.44
2023-04-04T14:40:29.142Z,101134.31
2023-04-04T14:42:56.256Z,101158.63
2023-04-04T14:45:23.823Z,101137.34
2023-04-04T14:47:51.091Z,101139.34
2023-04-04T14:50:18.062Z,101142.38
2023-04-04T14:52:45.325Z,101168.28
2023-04-04T14:55:12.411Z,101159.88
2023-04-04T14:57:57.068Z,101170.72
2023-04-04T15:00:26.655Z,101166.72
2023-04-04T15:02:53.677Z,101174.25
2023-04-04T15:05:20.716Z,101163.56
2023-04-04T15:07:47.803Z,101148.44
2023-04-04T15:10:14.899Z,101150.50
2023-04-04T15:12:42.003Z,101146.47
2023-04-04T15:15:09.401Z,101149.41
2023-04-04T15:17:36.739Z,101153.56
2023-04-04T15:20:03.894Z,101143.66
2023-04-04T15:22:30.895Z,101155.28
2023-04-04T15:24:57.872Z,101158.06
2023-04-04T15:27:24.706Z,101137.00
2023-04-04T15:29:52.816Z,101146.84
2023-04-04T15:32:19.756Z,101149.66
2023-04-04T15:34:46.645Z,101153.94
2023-04-04T15:37:13.565Z,101147.91
2023-04-04T15:39:52.360Z,101165.34
2023-04-04T15:42:20.811Z,101160.84
2023-04-04T15:44:47.754Z,101155.50
2023-04-04T15:47:16.668Z,101145.97
2023-04-04T15:49:43.667Z,101166.44
2023-04-04T15:52:10.871Z,101164.25
2023-04-04T15:54:37.709Z,101163.75
2023-04-04T15:57:04.644Z,101159.13
2023-04-04T15:59:32.338Z,101160.75
2023-04-04T16:01:59.969Z,101156.81
2023-04-04T16:04:26.846Z,101175.97
2023-04-04T16:06:53.746Z,101170.34
2023-04-04T16:09:21.534Z,101165.63
2023-04-04T16:11:48.589Z,101164.53
2023-04-04T16:14:15.542Z,101183.06
2023-04-04T16:16:42.497Z,101165.47
2023-04-04T16:19:09.427Z,101155.00
2023-04-04T16:21:36.966Z,101163.03
2023-04-04T16:24:05.301Z,101194.13
2023-04-04T16:26:32.285Z,101195.19
2023-04-04T16:28:59.325Z,101188.66
2023-04-04T16:31:26.428Z,101180.84
2023-04-04T16:33:53.367Z,101187.19
2023-04-04T16:36:20.559Z,101185.22
2023-04-04T16:38:47.567Z,101183.91
2023-04-04T16:41:16.355Z,101193.78
2023-04-04T16:43:43.605Z,101197.91
2023-04-04T16:46:10.838Z,101201.94
2023-04-04T16:48:37.770Z,101191.31
2023-04-04T16:51:04.881Z,101183.50
2023-04-04T16:53:31.833Z,101186.06
2023-04-04T16:55:58.702Z,101186.69
2023-04-04T16:58:26.148Z,101183.50
2023-04-04T17:00:53.064Z,101193.50
2023-04-04T17:03:19.959Z,101187.66
2023-04-04T17:05:47.969Z,101196.19
2023-04-04T17:08:14.977Z,101205.06
2023-04-04T17:10:43.152Z,101211.03
2023-04-04T17:13:10.517Z,101194.75
2023-04-04T17:15:37.455Z,101199.84
2023-04-04T17:18:04.424Z,101203.94
2023-04-04T17:20:34.230Z,101205.19
2023-04-04T17:23:01.440Z,101211.53
2023-04-04T17:25:29.345Z,101210.53
2023-04-04T17:27:56.509Z,101212.97
2023-04-04T17:30:23.587Z,101213.47
2023-04-04T17:32:54.447Z,101218.94
2023-04-04T17:35:21.834Z,101229.31
2023-04-04T17:37:48.728Z,101235.66
2023-04-04T17:40:15.719Z,101231.00
2023-04-04T17:42:42.624Z,101223.94
2023-04-04T17:45:10.365Z,101243.19
2023-04-04T17:47:37.847Z,101241.13
2023-04-04T17:50:05.734Z,101244.16
2023-04-04T17:52:33.400Z,101245.88
2023-04-04T17:55:00.684Z,101244.41
2023-04-04T17:57:27.667Z,101248.97
2023-04-04T17:59:54.786Z,101254.34
2023-04-04T18:02:21.940Z,101260.03
2023-04-04T18:04:48.835Z,101265.22
2023-04-04T18:07:16.983Z,101269.53
2023-04-04T18:09:44.655Z,101264.28
2023-04-04T18:12:12.334Z,101257.97
2023-04-04T18:14:39.284Z,101263.97
2023-04-04T18:17:06.432Z,101271.06
2023-04-04T18:19:33.508Z,101274.75
2023-04-04T18:22:01.662Z,101277.22
2023-04-04T18:24:28.645Z,101274.69
2023-04-04T18:26:56.391Z,101283.53
2023-04-04T18:29:23.407Z,101283.78
2023-04-04T18:31:51.291Z,101288.88
2023-04-04T18:34:18.491Z,101288.88
2023-04-04T18:36:46.798Z,101294.50
2023-04-04T18:39:17.392Z,101293.38
2023-04-04T18:41:46.581Z,101293.78
2023-04-04T18:44:13.841Z,101302.78
2023-04-04T18:46:41.028Z,101304.50
2023-04-04T18:49:08.180Z,101305.88
2023-04-04T18:51:35.185Z,101315.59
2023-04-04T18:54:02.206Z,101320.09
2023-04-04T18:56:29.100Z,101336.16
2023-04-04T18:58:56.579Z,101341.53
2023-04-04T19:01:24.687Z,101343.25
2023-04-04T19:03:53.886Z,101343.25
2023-04-04T19:06:26.099Z,101349.22
2023-04-04T19:08:56.846Z,101357.66
2023-04-04T19:11:24.115Z,101360.09
2023-04-04T19:13:51.373Z,101362.78
2023-04-04T19:16:19.470Z,101373.38
2023-04-04T19:18:46.509Z,101380.47
2023-04-04T19:21:13.511Z,101379.59
2023-04-04T19:23:40.975Z,101385.72
2023-04-04T19:26:08.192Z,101395.28
2023-04-04T19:28:35.804Z,101394.81
2023-04-04T19:31:04.591Z,101394.72
2023-04-04T19:33:33.232Z,101403.38
2023-04-04T19:36:09.596Z,101398.53
2023-04-04T19:38:42.630Z,101404.50
2023-04-04T19:41:36.612Z,101411.31
2023-04-04T19:44:06.498Z,101426.94
2023-04-04T19:46:34.445Z,101428.28
2023-04-04T19:49:24.626Z,101429.66
2023-04-04T19:51:54.190Z,101423.44
2023-04-04T19:54:28.704Z,101423.31
2023-04-04T19:57:05.118Z,101442.34
2023-04-04T20:00:10.978Z,101446.19
2023-04-04T20:02:47.703Z,101444.50
2023-04-04T20:05:47.115Z,101449.38
2023-04-04T20:08:14.874Z,101453.22
2023-04-04T20:10:42.571Z,101456.81
2023-04-04T20:13:09.927Z,101460.00
2023-04-04T20:16:00.626Z,101468.19
2023-04-04T20:18:30.006Z,101467.16
2023-04-04T20:20:58.369Z,101459.00
2023-04-04T20:23:27.079Z,101461.78
2023-04-04T20:25:54.716Z,101465.00
2023-04-04T20:28:27.592Z,101465.63
2023-04-04T20:30:54.968Z,101470.13
2023-04-04T20:33:32.291Z,101461.88
2023-04-04T20:36:06.218Z,101466.28
2023-04-04T20:38:33.365Z,101474.19
2023-04-04T20:41:00.836Z,101475.13
2023-04-04T20:43:28.946Z,101473.31
2023-04-04T20:45:56.127Z,101484.03
2023-04-04T20:48:50.791Z,101482.88
2023-04-04T20:51:31.497Z,101483.84
2023-04-04T20:54:01.089Z,101482.72
2023-04-04T20:56:52.638Z,101483.34
2023-04-04T20:59:35.002Z,101484.13
2023-04-04T21:02:11.464Z,101483.16
2023-04-04T21:04:39.889Z,101495.59
2023-04-04T21:07:06.905Z,101491.09
2023-04-04T21:09:33.913Z,101485.72
2023-04-04T21:12:01.890Z,101493.88
2023-04-04T21:14:38.108Z,101503.41
2023-04-04T21:17:07.110Z,101503.28
2023-04-04T21:19:34.162Z,101501.47
2023-04-04T21:22:01.224Z,101502.19
2023-04-04T21:24:34.351Z,101511.19
2023-04-04T21:27:04.625Z,101505.84
2023-04-04T21:29:31.618Z,101511.09
2023-04-04T21:31:59.107Z,101512.06
2023-04-04T21:34:27.921Z,101514.63
2023-04-04T21:36:59.889Z,101506.69
2023-04-04T21:39:29.804Z,101510.22
2023-04-04T21:42:04.051Z,101513.88
2023-04-04T21:44:32.295Z,101512.53
2023-04-04T21:46:59.171Z,101512.72
2023-04-04T21:49:26.673Z,101506.50
2023-04-04T21:51:53.645Z,101509.31
2023-04-04T21:54:20.649Z,101500.53
2023-04-04T21:56:47.756Z,101499.66
2023-04-04T21:59:14.882Z,101506.13
2023-04-04T22:01:41.975Z,101501.81
2023-04-04T22:04:09.029Z,101501.19
2023-04-04T22:06:36.505Z,101511.16
2023-04-04T22:09:04.350Z,101505.06
2023-04-04T22:11:34.838Z,101513.22
2023-04-04T22:14:07.210Z,101511.72
2023-04-04T22:16:40.347Z,101510.97
2023-04-04T22:19:07.819Z,101513.66
2023-04-04T22:21:37.159Z,101507.75
2023-04-04T22:24:06.217Z,101513.13
2023-04-04T22:26:33.745Z,101517.84
2023-04-04T22:29:05.409Z,101515.81
2023-04-04T22:31:37.643Z,101518.81
2023-04-04T22:34:06.446Z,101512.59
2023-04-04T22:36:34.593Z,101516.47
2023-04-04T22:39:02.125Z,101516.47
2023-04-04T22:41:30.218Z,101504.25
2023-04-04T22:43:58.041Z,101508.75
2023-04-04T22:46:26.667Z,101509.63
2023-04-04T22:49:06.126Z,101512.41
2023-04-04T22:51:43.342Z,101517.09
2023-04-04T22:54:15.230Z,101515.38
2023-04-04T22:56:42.367Z,101517.31
2023-04-04T22:59:09.336Z,101520.09
2023-04-04T23:01:36.650Z,101527.41
2023-04-04T23:04:03.838Z,101521.59
2023-04-04T23:06:31.451Z,101515.28
2023-04-04T23:08:59.060Z,101512.81
2023-04-04T23:11:27.543Z,101510.25
2023-04-04T23:13:57.149Z,101506.19
2023-04-04T23:16:26.653Z,101506.38
2023-04-04T23:18:53.665Z,101495.91
2023-04-04T23:21:22.053Z,101502.44
2023-04-04T23:23:49.198Z,101500.09
2023-04-04T23:26:16.387Z,101494.63
2023-04-04T23:28:43.424Z,101497.41
2023-04-04T23:31:10.741Z,101501.91
2023-04-04T23:33:38.120Z,101496.56
2023-04-04T23:36:07.314Z,101502.84
2023-04-04T23:38:34.332Z,101500.19
2023-04-04T23:41:01.364Z,101499.22
2023-04-04T23:43:28.544Z,101503.00
2023-04-04T23:45:55.696Z,101501.28
2023-04-04T23:48:22.634Z,101498.69
2023-04-04T23:50:50.259Z,101505.22
2023-04-04T23:53:17.279Z,101502.53
2023-04-04T23:55:44.219Z,101502.78
2023-04-04T23:58:11.252Z,101499.09
